FCBB

Brazzaville/Maya-Maya Airport

Airport
ICAO code
FCBB
IATA Code
BZV
Summary
ICAO Region
AFI
ICAO Territory
Location

Brazzaville, Brazzaville

Serving
Brazzaville
Elevation
1048 ft
Coordinates
4° 15' 20" S , 15° 14' 54" E
Metar
FCBB 271000Z 04010KT 7000 -TSRA FEW011 BKN020 FEW028CB 26/23 Q1018 NOSIG

Maya-Maya Airport is an airport located in Brazzaville, the capital of the Republic of the Congo.

Runways

Designator Length Width Surface Rops
5/23 3300 45 ASP Yes/Yes

Airport map

Aerial View

SKYbrary Partners:

Safety knowledge contributed by: